createdAt,value
2023-03-17T00:02:45.148Z,5.45
2023-03-17T00:06:45.136Z,5.48
2023-03-17T00:10:45.415Z,5.54
2023-03-17T00:14:45.291Z,5.51
2023-03-17T00:18:45.416Z,5.27
2023-03-17T00:22:45.599Z,5.08
2023-03-17T00:26:45.672Z,5.34
2023-03-17T00:30:45.785Z,5.58
2023-03-17T00:34:45.961Z,5.87
2023-03-17T00:38:46.021Z,6.01
2023-03-17T00:42:46.192Z,6.06
2023-03-17T00:46:46.487Z,6.16
2023-03-17T00:50:46.436Z,6.69
2023-03-17T00:54:46.536Z,6.69
2023-03-17T00:58:46.876Z,6.64
2023-03-17T01:02:46.862Z,5.91
2023-03-17T01:06:47.074Z,6.03
2023-03-17T01:10:47.044Z,6.40
2023-03-17T01:14:47.153Z,5.71
2023-03-17T01:18:47.252Z,5.65
2023-03-17T01:22:47.322Z,5.40
2023-03-17T01:26:47.671Z,5.31
2023-03-17T01:30:47.868Z,5.25
2023-03-17T01:34:47.758Z,5.29
2023-03-17T01:38:47.818Z,5.97
2023-03-17T01:42:47.939Z,5.57
2023-03-17T01:46:48.435Z,5.80
2023-03-17T01:50:48.377Z,5.50
2023-03-17T01:54:49.272Z,5.15
2023-03-17T01:58:48.449Z,5.06
2023-03-17T02:02:48.576Z,5.82
2023-03-17T02:06:57.468Z,6.37
2023-03-17T02:10:49.625Z,5.96
2023-03-17T02:14:48.630Z,5.76
2023-03-17T02:18:48.620Z,5.35
2023-03-17T02:22:48.765Z,5.44
2023-03-17T02:26:49.150Z,5.11
2023-03-17T02:30:49.345Z,4.86
2023-03-17T02:34:49.237Z,4.98
2023-03-17T02:38:49.405Z,5.61
2023-03-17T02:42:49.441Z,6.11
2023-03-17T02:46:49.544Z,6.07
2023-03-17T02:50:49.916Z,5.75
2023-03-17T02:54:50.084Z,6.02
2023-03-17T02:58:49.938Z,5.83
2023-03-17T03:02:50.040Z,5.72
2023-03-17T03:06:50.169Z,5.10
2023-03-17T03:10:50.295Z,5.53
2023-03-17T03:14:50.325Z,5.62
2023-03-17T03:18:50.381Z,5.37
2023-03-17T03:22:50.564Z,6.35
2023-03-17T03:26:50.700Z,6.57
2023-03-17T03:30:51.031Z,6.66
2023-03-17T03:34:51.090Z,6.93
2023-03-17T03:38:51.161Z,7.16
2023-03-17T03:42:51.076Z,5.70
2023-03-17T03:46:51.577Z,5.50
2023-03-17T03:50:51.758Z,5.35
2023-03-17T03:54:51.370Z,5.93
2023-03-17T03:58:51.663Z,5.48
2023-03-17T04:02:51.930Z,5.50
2023-03-17T04:06:52.096Z,5.56
2023-03-17T04:10:52.094Z,4.99
2023-03-17T04:14:52.302Z,4.44
2023-03-17T04:18:52.259Z,5.56
2023-03-17T04:22:52.317Z,5.96
2023-03-17T04:26:52.369Z,5.09
2023-03-17T04:30:52.512Z,4.95
2023-03-17T04:34:52.602Z,5.19
2023-03-17T04:38:52.761Z,4.59
2023-03-17T04:42:52.870Z,5.16
2023-03-17T04:46:53.041Z,6.54
2023-03-17T04:50:53.087Z,5.95
2023-03-17T04:54:53.485Z,5.59
2023-03-17T04:58:53.502Z,6.47
2023-03-17T05:02:53.437Z,6.02
2023-03-17T05:06:53.673Z,6.85
2023-03-17T05:10:53.783Z,6.21
2023-03-17T05:14:53.866Z,5.91
2023-03-17T05:18:53.919Z,5.81
2023-03-17T05:22:54.108Z,5.53
2023-03-17T05:26:54.139Z,5.63
2023-03-17T05:30:54.412Z,5.41
2023-03-17T05:34:54.445Z,5.74
2023-03-17T05:38:54.555Z,6.56
2023-03-17T05:42:54.684Z,5.52
2023-03-17T05:46:54.772Z,5.89
2023-03-17T05:50:54.935Z,5.60
2023-03-17T05:54:55.070Z,6.01
2023-03-17T05:58:55.204Z,6.41
2023-03-17T06:02:55.301Z,6.91
2023-03-17T06:06:55.394Z,6.64
2023-03-17T06:10:55.472Z,6.66
2023-03-17T06:14:55.611Z,6.65
2023-03-17T06:18:55.718Z,6.66
2023-03-17T06:23:04.512Z,7.26
2023-03-17T06:26:56.789Z,7.36
2023-03-17T06:30:55.772Z,8.14
2023-03-17T06:34:55.796Z,8.61
2023-03-17T06:38:56.048Z,8.94
2023-03-17T06:42:56.065Z,8.38
2023-03-17T06:46:56.216Z,8.88
2023-03-17T06:50:56.527Z,9.79
2023-03-17T06:54:56.489Z,9.61
2023-03-17T06:58:56.540Z,9.58
2023-03-17T07:02:56.545Z,9.75
2023-03-17T07:06:56.762Z,9.93
2023-03-17T07:10:57.012Z,9.86
2023-03-17T07:14:57.253Z,9.79
2023-03-17T07:18:57.186Z,10.23
2023-03-17T07:22:57.267Z,10.54
2023-03-17T07:26:57.325Z,11.27
2023-03-17T07:30:57.422Z,10.66
2023-03-17T07:34:57.737Z,10.62
2023-03-17T07:38:58.017Z,11.39
2023-03-17T07:42:57.781Z,11.29
2023-03-17T07:46:58.649Z,10.79
2023-03-17T07:51:12.327Z,11.18
